sensor_id;sensor_type;location;lat;lon;timestamp;P1;durP1;ratioP1;P2;durP2;ratioP2
10341;SDS011;5216;54.602;18.356;2023-01-20T00:00:41;31.40;;;20.40;;
10341;SDS011;5216;54.602;18.356;2023-01-20T00:03:08;24.60;;;18.80;;
10341;SDS011;5216;54.602;18.356;2023-01-20T00:05:34;28.23;;;19.93;;
10341;SDS011;5216;54.602;18.356;2023-01-20T00:08:04;22.53;;;16.90;;
10341;SDS011;5216;54.602;18.356;2023-01-20T00:10:30;24.07;;;16.93;;
10341;SDS011;5216;54.602;18.356;2023-01-20T00:12:57;22.23;;;15.70;;
10341;SDS011;5216;54.602;18.356;2023-01-20T00:15:23;25.53;;;17.87;;
10341;SDS011;5216;54.602;18.356;2023-01-20T00:17:50;22.23;;;15.40;;
10341;SDS011;5216;54.602;18.356;2023-01-20T00:20:16;15.03;;;11.87;;
10341;SDS011;5216;54.602;18.356;2023-01-20T00:22:43;19.53;;;14.30;;
10341;SDS011;5216;54.602;18.356;2023-01-20T00:25:09;18.53;;;12.53;;
10341;SDS011;5216;54.602;18.356;2023-01-20T00:27:36;20.07;;;12.87;;
10341;SDS011;5216;54.602;18.356;2023-01-20T00:30:05;17.03;;;12.53;;
10341;SDS011;5216;54.602;18.356;2023-01-20T00:32:36;23.10;;;15.73;;
10341;SDS011;5216;54.602;18.356;2023-01-20T00:35:02;20.07;;;15.13;;
10341;SDS011;5216;54.602;18.356;2023-01-20T00:37:29;18.77;;;12.80;;
10341;SDS011;5216;54.602;18.356;2023-01-20T00:39:55;26.60;;;19.00;;
10341;SDS011;5216;54.602;18.356;2023-01-20T00:42:21;27.20;;;17.93;;
10341;SDS011;5216;54.602;18.356;2023-01-20T00:44:48;27.30;;;16.63;;
10341;SDS011;5216;54.602;18.356;2023-01-20T00:47:14;20.17;;;13.40;;
10341;SDS011;5216;54.602;18.356;2023-01-20T00:49:41;21.23;;;14.90;;
10341;SDS011;5216;54.602;18.356;2023-01-20T00:52:07;21.70;;;14.10;;
10341;SDS011;5216;54.602;18.356;2023-01-20T00:54:34;15.97;;;10.70;;
10341;SDS011;5216;54.602;18.356;2023-01-20T00:57:00;12.00;;;9.60;;
10341;SDS011;5216;54.602;18.356;2023-01-20T00:59:27;13.33;;;10.23;;
10341;SDS011;5216;54.602;18.356;2023-01-20T01:01:53;11.83;;;9.03;;
10341;SDS011;5216;54.602;18.356;2023-01-20T01:04:20;12.43;;;8.90;;
10341;SDS011;5216;54.602;18.356;2023-01-20T01:06:48;10.13;;;8.13;;
10341;SDS011;5216;54.602;18.356;2023-01-20T01:09:15;11.47;;;8.40;;
10341;SDS011;5216;54.602;18.356;2023-01-20T01:11:41;10.20;;;8.93;;
10341;SDS011;5216;54.602;18.356;2023-01-20T01:14:08;10.27;;;8.23;;
10341;SDS011;5216;54.602;18.356;2023-01-20T01:16:34;10.60;;;8.33;;
10341;SDS011;5216;54.602;18.356;2023-01-20T01:19:01;11.90;;;9.50;;
10341;SDS011;5216;54.602;18.356;2023-01-20T01:21:27;10.37;;;8.70;;
10341;SDS011;5216;54.602;18.356;2023-01-20T01:23:54;9.73;;;8.73;;
10341;SDS011;5216;54.602;18.356;2023-01-20T01:26:20;10.20;;;8.80;;
10341;SDS011;5216;54.602;18.356;2023-01-20T01:28:47;11.30;;;8.50;;
10341;SDS011;5216;54.602;18.356;2023-01-20T01:31:15;10.30;;;8.30;;
10341;SDS011;5216;54.602;18.356;2023-01-20T01:33:41;10.03;;;7.97;;
10341;SDS011;5216;54.602;18.356;2023-01-20T01:36:11;11.90;;;9.27;;
10341;SDS011;5216;54.602;18.356;2023-01-20T01:38:37;11.83;;;10.43;;
10341;SDS011;5216;54.602;18.356;2023-01-20T01:41:04;10.20;;;8.40;;
10341;SDS011;5216;54.602;18.356;2023-01-20T01:43:31;10.03;;;8.60;;
10341;SDS011;5216;54.602;18.356;2023-01-20T01:45:58;9.87;;;8.47;;
10341;SDS011;5216;54.602;18.356;2023-01-20T01:48:30;9.50;;;8.47;;
10341;SDS011;5216;54.602;18.356;2023-01-20T01:51:03;8.73;;;7.83;;
10341;SDS011;5216;54.602;18.356;2023-01-20T01:53:33;11.57;;;8.50;;
10341;SDS011;5216;54.602;18.356;2023-01-20T01:56:02;9.90;;;7.77;;
10341;SDS011;5216;54.602;18.356;2023-01-20T01:58:29;10.47;;;8.60;;
10341;SDS011;5216;54.602;18.356;2023-01-20T02:00:57;11.33;;;9.30;;
10341;SDS011;5216;54.602;18.356;2023-01-20T02:03:24;11.97;;;9.10;;
10341;SDS011;5216;54.602;18.356;2023-01-20T02:05:51;9.77;;;8.73;;
10341;SDS011;5216;54.602;18.356;2023-01-20T02:08:18;10.43;;;9.00;;
10341;SDS011;5216;54.602;18.356;2023-01-20T02:10:44;11.50;;;8.90;;
10341;SDS011;5216;54.602;18.356;2023-01-20T02:13:11;12.53;;;8.90;;
10341;SDS011;5216;54.602;18.356;2023-01-20T02:15:46;10.30;;;8.60;;
10341;SDS011;5216;54.602;18.356;2023-01-20T02:21:05;12.03;;;9.10;;
10341;SDS011;5216;54.602;18.356;2023-01-20T02:23:51;12.33;;;9.80;;
10341;SDS011;5216;54.602;18.356;2023-01-20T02:26:31;13.13;;;9.13;;
10341;SDS011;5216;54.602;18.356;2023-01-20T02:37:07;10.57;;;8.50;;
10341;SDS011;5216;54.602;18.356;2023-01-20T02:39:41;8.90;;;7.77;;
10341;SDS011;5216;54.602;18.356;2023-01-20T02:42:09;10.73;;;7.97;;
10341;SDS011;5216;54.602;18.356;2023-01-20T02:49:57;9.37;;;8.13;;
10341;SDS011;5216;54.602;18.356;2023-01-20T02:52:33;10.87;;;7.90;;
10341;SDS011;5216;54.602;18.356;2023-01-20T02:55:03;9.90;;;8.13;;
10341;SDS011;5216;54.602;18.356;2023-01-20T02:57:32;10.30;;;7.87;;
10341;SDS011;5216;54.602;18.356;2023-01-20T03:00:02;10.10;;;7.87;;
10341;SDS011;5216;54.602;18.356;2023-01-20T03:02:29;9.83;;;8.50;;
10341;SDS011;5216;54.602;18.356;2023-01-20T03:05:06;9.63;;;7.90;;
10341;SDS011;5216;54.602;18.356;2023-01-20T03:07:34;9.33;;;8.20;;
10341;SDS011;5216;54.602;18.356;2023-01-20T03:10:04;9.80;;;8.27;;
10341;SDS011;5216;54.602;18.356;2023-01-20T03:12:37;9.43;;;8.27;;
10341;SDS011;5216;54.602;18.356;2023-01-20T03:15:05;11.33;;;8.50;;
10341;SDS011;5216;54.602;18.356;2023-01-20T03:17:32;11.00;;;8.30;;
10341;SDS011;5216;54.602;18.356;2023-01-20T03:19:59;11.17;;;9.17;;
10341;SDS011;5216;54.602;18.356;2023-01-20T03:22:26;12.37;;;8.70;;
10341;SDS011;5216;54.602;18.356;2023-01-20T03:24:53;11.70;;;8.60;;
10341;SDS011;5216;54.602;18.356;2023-01-20T03:27:21;10.07;;;8.53;;
10341;SDS011;5216;54.602;18.356;2023-01-20T03:29:47;10.97;;;8.97;;
10341;SDS011;5216;54.602;18.356;2023-01-20T03:32:14;10.33;;;8.97;;
10341;SDS011;5216;54.602;18.356;2023-01-20T03:34:40;11.20;;;8.57;;
10341;SDS011;5216;54.602;18.356;2023-01-20T03:37:08;11.70;;;8.73;;
10341;SDS011;5216;54.602;18.356;2023-01-20T03:39:35;11.50;;;8.73;;
10341;SDS011;5216;54.602;18.356;2023-01-20T03:42:15;12.27;;;9.30;;
10341;SDS011;5216;54.602;18.356;2023-01-20T03:49:53;12.13;;;8.93;;
10341;SDS011;5216;54.602;18.356;2023-01-20T03:55:15;11.10;;;8.97;;
10341;SDS011;5216;54.602;18.356;2023-01-20T03:57:50;11.50;;;9.27;;
10341;SDS011;5216;54.602;18.356;2023-01-20T04:00:19;11.10;;;8.47;;
10341;SDS011;5216;54.602;18.356;2023-01-20T04:02:46;11.47;;;8.73;;
10341;SDS011;5216;54.602;18.356;2023-01-20T04:05:12;11.53;;;9.40;;
10341;SDS011;5216;54.602;18.356;2023-01-20T04:07:39;11.37;;;8.97;;
10341;SDS011;5216;54.602;18.356;2023-01-20T04:10:09;12.40;;;9.07;;
10341;SDS011;5216;54.602;18.356;2023-01-20T04:12:37;11.57;;;9.50;;
10341;SDS011;5216;54.602;18.356;2023-01-20T04:15:03;15.00;;;12.87;;
10341;SDS011;5216;54.602;18.356;2023-01-20T04:17:31;14.33;;;11.53;;
10341;SDS011;5216;54.602;18.356;2023-01-20T04:19:58;11.50;;;9.80;;
10341;SDS011;5216;54.602;18.356;2023-01-20T04:22:27;12.50;;;9.30;;
10341;SDS011;5216;54.602;18.356;2023-01-20T04:24:56;10.67;;;8.47;;
10341;SDS011;5216;54.602;18.356;2023-01-20T04:27:25;11.17;;;8.93;;
10341;SDS011;5216;54.602;18.356;2023-01-20T04:29:51;11.13;;;9.17;;
10341;SDS011;5216;54.602;18.356;2023-01-20T04:32:17;10.67;;;9.57;;
10341;SDS011;5216;54.602;18.356;2023-01-20T04:34:44;11.37;;;9.27;;
10341;SDS011;5216;54.602;18.356;2023-01-20T04:37:10;11.13;;;9.20;;
10341;SDS011;5216;54.602;18.356;2023-01-20T04:39:37;12.00;;;9.27;;
10341;SDS011;5216;54.602;18.356;2023-01-20T04:42:03;11.97;;;9.40;;
10341;SDS011;5216;54.602;18.356;2023-01-20T04:44:30;12.43;;;9.83;;
10341;SDS011;5216;54.602;18.356;2023-01-20T04:46:56;11.97;;;9.40;;
10341;SDS011;5216;54.602;18.356;2023-01-20T04:49:23;13.67;;;10.90;;
10341;SDS011;5216;54.602;18.356;2023-01-20T04:51:50;13.30;;;10.73;;
10341;SDS011;5216;54.602;18.356;2023-01-20T04:54:16;11.77;;;10.27;;
10341;SDS011;5216;54.602;18.356;2023-01-20T04:56:43;15.87;;;11.67;;
10341;SDS011;5216;54.602;18.356;2023-01-20T04:59:09;14.30;;;11.33;;
10341;SDS011;5216;54.602;18.356;2023-01-20T05:01:36;18.90;;;14.57;;
10341;SDS011;5216;54.602;18.356;2023-01-20T05:04:02;23.03;;;19.97;;
10341;SDS011;5216;54.602;18.356;2023-01-20T05:06:29;12.97;;;10.83;;
10341;SDS011;5216;54.602;18.356;2023-01-20T05:08:55;13.50;;;11.07;;
10341;SDS011;5216;54.602;18.356;2023-01-20T05:11:22;13.70;;;10.93;;
10341;SDS011;5216;54.602;18.356;2023-01-20T05:13:48;16.40;;;11.60;;
10341;SDS011;5216;54.602;18.356;2023-01-20T05:16:14;15.13;;;10.77;;
10341;SDS011;5216;54.602;18.356;2023-01-20T05:18:47;14.60;;;10.37;;
10341;SDS011;5216;54.602;18.356;2023-01-20T05:21:13;13.43;;;10.87;;
10341;SDS011;5216;54.602;18.356;2023-01-20T05:23:39;13.50;;;12.00;;
10341;SDS011;5216;54.602;18.356;2023-01-20T05:26:06;23.17;;;18.83;;
10341;SDS011;5216;54.602;18.356;2023-01-20T05:28:32;29.23;;;24.07;;
10341;SDS011;5216;54.602;18.356;2023-01-20T05:30:59;15.97;;;12.53;;
10341;SDS011;5216;54.602;18.356;2023-01-20T05:33:25;12.47;;;10.70;;
10341;SDS011;5216;54.602;18.356;2023-01-20T05:35:52;13.93;;;10.20;;
10341;SDS011;5216;54.602;18.356;2023-01-20T05:38:21;12.83;;;10.53;;
10341;SDS011;5216;54.602;18.356;2023-01-20T05:40:47;12.80;;;9.97;;
10341;SDS011;5216;54.602;18.356;2023-01-20T05:43:14;12.23;;;9.83;;
10341;SDS011;5216;54.602;18.356;2023-01-20T05:45:40;15.63;;;11.77;;
10341;SDS011;5216;54.602;18.356;2023-01-20T05:48:07;13.73;;;11.00;;
10341;SDS011;5216;54.602;18.356;2023-01-20T05:50:34;14.10;;;11.30;;
10341;SDS011;5216;54.602;18.356;2023-01-20T05:53:00;12.93;;;11.00;;
10341;SDS011;5216;54.602;18.356;2023-01-20T05:55:26;14.10;;;11.03;;
10341;SDS011;5216;54.602;18.356;2023-01-20T05:57:53;14.50;;;11.60;;
10341;SDS011;5216;54.602;18.356;2023-01-20T06:00:19;14.10;;;11.63;;
10341;SDS011;5216;54.602;18.356;2023-01-20T06:02:46;14.57;;;11.17;;
10341;SDS011;5216;54.602;18.356;2023-01-20T06:05:13;14.10;;;11.00;;
10341;SDS011;5216;54.602;18.356;2023-01-20T06:07:39;13.73;;;11.00;;
10341;SDS011;5216;54.602;18.356;2023-01-20T06:10:06;12.80;;;10.43;;
10341;SDS011;5216;54.602;18.356;2023-01-20T06:12:34;13.60;;;10.37;;
10341;SDS011;5216;54.602;18.356;2023-01-20T06:15:03;15.20;;;10.30;;
10341;SDS011;5216;54.602;18.356;2023-01-20T06:17:29;11.80;;;10.03;;
10341;SDS011;5216;54.602;18.356;2023-01-20T06:19:56;14.87;;;11.57;;
10341;SDS011;5216;54.602;18.356;2023-01-20T06:22:22;15.77;;;11.63;;
10341;SDS011;5216;54.602;18.356;2023-01-20T06:24:49;14.93;;;12.07;;
10341;SDS011;5216;54.602;18.356;2023-01-20T06:27:15;17.70;;;12.90;;
10341;SDS011;5216;54.602;18.356;2023-01-20T06:29:41;15.33;;;11.77;;
10341;SDS011;5216;54.602;18.356;2023-01-20T06:32:08;16.60;;;12.53;;
10341;SDS011;5216;54.602;18.356;2023-01-20T06:34:34;17.03;;;12.43;;
10341;SDS011;5216;54.602;18.356;2023-01-20T06:37:02;16.63;;;13.23;;
10341;SDS011;5216;54.602;18.356;2023-01-20T06:39:29;20.40;;;15.30;;
10341;SDS011;5216;54.602;18.356;2023-01-20T06:41:58;15.67;;;12.67;;
10341;SDS011;5216;54.602;18.356;2023-01-20T06:44:25;17.60;;;14.03;;
10341;SDS011;5216;54.602;18.356;2023-01-20T06:46:52;17.90;;;14.37;;
10341;SDS011;5216;54.602;18.356;2023-01-20T06:49:19;18.50;;;14.03;;
10341;SDS011;5216;54.602;18.356;2023-01-20T06:51:46;18.27;;;15.30;;
10341;SDS011;5216;54.602;18.356;2023-01-20T06:54:14;20.00;;;15.80;;
10341;SDS011;5216;54.602;18.356;2023-01-20T06:56:40;22.23;;;16.70;;
10341;SDS011;5216;54.602;18.356;2023-01-20T06:59:08;24.47;;;19.80;;
10341;SDS011;5216;54.602;18.356;2023-01-20T07:01:34;24.53;;;16.73;;
10341;SDS011;5216;54.602;18.356;2023-01-20T07:04:01;23.57;;;17.33;;
10341;SDS011;5216;54.602;18.356;2023-01-20T07:08:54;19.43;;;15.37;;
10341;SDS011;5216;54.602;18.356;2023-01-20T07:11:23;21.10;;;16.20;;
10341;SDS011;5216;54.602;18.356;2023-01-20T07:13:50;25.20;;;18.40;;
10341;SDS011;5216;54.602;18.356;2023-01-20T07:16:16;23.03;;;18.00;;
10341;SDS011;5216;54.602;18.356;2023-01-20T07:18:45;17.53;;;13.40;;
10341;SDS011;5216;54.602;18.356;2023-01-20T07:21:12;17.87;;;13.70;;
10341;SDS011;5216;54.602;18.356;2023-01-20T07:23:39;17.57;;;12.77;;
10341;SDS011;5216;54.602;18.356;2023-01-20T07:26:07;14.90;;;11.87;;
10341;SDS011;5216;54.602;18.356;2023-01-20T07:28:34;16.87;;;12.60;;
10341;SDS011;5216;54.602;18.356;2023-01-20T07:33:30;17.50;;;12.53;;
10341;SDS011;5216;54.602;18.356;2023-01-20T07:35:56;15.93;;;12.60;;
10341;SDS011;5216;54.602;18.356;2023-01-20T07:38:23;19.77;;;14.73;;
10341;SDS011;5216;54.602;18.356;2023-01-20T07:40:52;20.50;;;14.93;;
10341;SDS011;5216;54.602;18.356;2023-01-20T07:43:18;21.30;;;15.03;;
10341;SDS011;5216;54.602;18.356;2023-01-20T07:45:44;19.60;;;15.90;;
10341;SDS011;5216;54.602;18.356;2023-01-20T07:48:11;20.40;;;16.13;;
10341;SDS011;5216;54.602;18.356;2023-01-20T07:50:37;18.93;;;15.00;;
10341;SDS011;5216;54.602;18.356;2023-01-20T07:53:04;21.40;;;14.83;;
10341;SDS011;5216;54.602;18.356;2023-01-20T07:55:31;19.60;;;15.43;;
10341;SDS011;5216;54.602;18.356;2023-01-20T07:57:58;17.07;;;13.90;;
10341;SDS011;5216;54.602;18.356;2023-01-20T08:00:24;21.33;;;16.03;;
10341;SDS011;5216;54.602;18.356;2023-01-20T08:02:51;20.53;;;16.73;;
10341;SDS011;5216;54.602;18.356;2023-01-20T08:05:17;17.73;;;14.10;;
10341;SDS011;5216;54.602;18.356;2023-01-20T08:07:44;17.57;;;13.63;;
10341;SDS011;5216;54.602;18.356;2023-01-20T08:10:14;18.67;;;14.87;;
10341;SDS011;5216;54.602;18.356;2023-01-20T08:12:41;18.17;;;14.80;;
10341;SDS011;5216;54.602;18.356;2023-01-20T08:15:08;18.60;;;14.93;;
10341;SDS011;5216;54.602;18.356;2023-01-20T08:17:34;21.77;;;16.67;;
10341;SDS011;5216;54.602;18.356;2023-01-20T08:20:01;19.83;;;16.07;;
10341;SDS011;5216;54.602;18.356;2023-01-20T08:22:27;19.50;;;15.10;;
10341;SDS011;5216;54.602;18.356;2023-01-20T08:24:54;17.87;;;14.23;;
10341;SDS011;5216;54.602;18.356;2023-01-20T08:27:20;18.37;;;14.13;;
10341;SDS011;5216;54.602;18.356;2023-01-20T08:29:47;20.37;;;15.20;;
10341;SDS011;5216;54.602;18.356;2023-01-20T08:32:13;21.90;;;17.37;;
10341;SDS011;5216;54.602;18.356;2023-01-20T08:34:40;22.53;;;17.30;;
10341;SDS011;5216;54.602;18.356;2023-01-20T08:37:06;19.17;;;15.10;;
10341;SDS011;5216;54.602;18.356;2023-01-20T08:39:33;20.30;;;15.03;;
10341;SDS011;5216;54.602;18.356;2023-01-20T08:41:59;15.77;;;12.53;;
10341;SDS011;5216;54.602;18.356;2023-01-20T08:44:25;16.93;;;13.00;;
10341;SDS011;5216;54.602;18.356;2023-01-20T08:46:52;16.37;;;12.53;;
10341;SDS011;5216;54.602;18.356;2023-01-20T08:49:23;14.67;;;10.93;;
10341;SDS011;5216;54.602;18.356;2023-01-20T08:51:50;13.63;;;10.67;;
10341;SDS011;5216;54.602;18.356;2023-01-20T08:54:16;18.70;;;14.00;;
10341;SDS011;5216;54.602;18.356;2023-01-20T08:56:43;18.13;;;14.63;;
10341;SDS011;5216;54.602;18.356;2023-01-20T08:59:09;14.53;;;11.50;;
10341;SDS011;5216;54.602;18.356;2023-01-20T09:01:36;12.87;;;10.37;;
10341;SDS011;5216;54.602;18.356;2023-01-20T09:04:03;15.03;;;11.03;;
10341;SDS011;5216;54.602;18.356;2023-01-20T09:06:42;15.13;;;11.97;;
10341;SDS011;5216;54.602;18.356;2023-01-20T09:09:09;15.83;;;12.20;;
10341;SDS011;5216;54.602;18.356;2023-01-20T09:11:36;16.10;;;11.83;;
10341;SDS011;5216;54.602;18.356;2023-01-20T09:14:03;15.37;;;11.30;;
10341;SDS011;5216;54.602;18.356;2023-01-20T09:16:30;16.03;;;12.70;;
10341;SDS011;5216;54.602;18.356;2023-01-20T09:18:56;17.10;;;12.20;;
10341;SDS011;5216;54.602;18.356;2023-01-20T09:21:23;15.53;;;12.70;;
10341;SDS011;5216;54.602;18.356;2023-01-20T09:23:49;15.80;;;12.00;;
10341;SDS011;5216;54.602;18.356;2023-01-20T09:26:16;36.10;;;24.57;;
10341;SDS011;5216;54.602;18.356;2023-01-20T09:28:59;18.87;;;11.67;;
10341;SDS011;5216;54.602;18.356;2023-01-20T09:31:38;16.73;;;11.60;;
10341;SDS011;5216;54.602;18.356;2023-01-20T09:34:05;13.97;;;10.97;;
10341;SDS011;5216;54.602;18.356;2023-01-20T09:36:31;15.77;;;11.47;;
10341;SDS011;5216;54.602;18.356;2023-01-20T09:38:58;14.20;;;11.17;;
10341;SDS011;5216;54.602;18.356;2023-01-20T09:41:46;15.40;;;12.03;;
10341;SDS011;5216;54.602;18.356;2023-01-20T09:44:51;14.97;;;11.27;;
10341;SDS011;5216;54.602;18.356;2023-01-20T09:47:28;13.93;;;11.37;;
10341;SDS011;5216;54.602;18.356;2023-01-20T09:53:08;15.03;;;11.80;;
10341;SDS011;5216;54.602;18.356;2023-01-20T09:55:42;15.57;;;11.97;;
10341;SDS011;5216;54.602;18.356;2023-01-20T10:00:37;18.27;;;14.60;;
10341;SDS011;5216;54.602;18.356;2023-01-20T10:03:16;17.30;;;13.47;;
10341;SDS011;5216;54.602;18.356;2023-01-20T10:05:43;16.33;;;12.47;;
10341;SDS011;5216;54.602;18.356;2023-01-20T10:08:12;18.90;;;13.73;;
10341;SDS011;5216;54.602;18.356;2023-01-20T10:10:44;16.23;;;12.20;;
10341;SDS011;5216;54.602;18.356;2023-01-20T10:15:42;14.30;;;11.43;;
10341;SDS011;5216;54.602;18.356;2023-01-20T10:21:13;16.53;;;12.60;;
10341;SDS011;5216;54.602;18.356;2023-01-20T10:26:11;14.97;;;11.60;;
10341;SDS011;5216;54.602;18.356;2023-01-20T10:28:40;14.23;;;10.33;;
10341;SDS011;5216;54.602;18.356;2023-01-20T10:31:08;14.87;;;10.17;;
10341;SDS011;5216;54.602;18.356;2023-01-20T10:33:37;13.93;;;10.00;;
10341;SDS011;5216;54.602;18.356;2023-01-20T10:36:27;11.57;;;9.67;;
10341;SDS011;5216;54.602;18.356;2023-01-20T10:39:00;14.53;;;11.70;;
10341;SDS011;5216;54.602;18.356;2023-01-20T10:57:09;17.27;;;12.67;;
10341;SDS011;5216;54.602;18.356;2023-01-20T11:03:08;19.33;;;14.63;;
10341;SDS011;5216;54.602;18.356;2023-01-20T11:05:39;22.00;;;16.03;;
10341;SDS011;5216;54.602;18.356;2023-01-20T11:08:09;20.50;;;15.77;;
10341;SDS011;5216;54.602;18.356;2023-01-20T11:10:43;21.43;;;15.77;;
10341;SDS011;5216;54.602;18.356;2023-01-20T11:13:10;22.80;;;16.53;;
10341;SDS011;5216;54.602;18.356;2023-01-20T11:15:39;20.43;;;15.57;;
10341;SDS011;5216;54.602;18.356;2023-01-20T11:23:18;19.97;;;14.67;;
10341;SDS011;5216;54.602;18.356;2023-01-20T11:25:57;21.07;;;15.43;;
10341;SDS011;5216;54.602;18.356;2023-01-20T11:28:24;24.27;;;17.10;;
10341;SDS011;5216;54.602;18.356;2023-01-20T11:30:51;24.50;;;17.27;;
10341;SDS011;5216;54.602;18.356;2023-01-20T11:35:58;24.53;;;17.57;;
10341;SDS011;5216;54.602;18.356;2023-01-20T11:38:28;22.97;;;17.83;;
10341;SDS011;5216;54.602;18.356;2023-01-20T11:40:56;28.13;;;19.20;;
10341;SDS011;5216;54.602;18.356;2023-01-20T11:43:35;24.37;;;17.87;;
10341;SDS011;5216;54.602;18.356;2023-01-20T11:51:43;27.63;;;19.43;;
10341;SDS011;5216;54.602;18.356;2023-01-20T11:54:14;27.87;;;20.50;;
10341;SDS011;5216;54.602;18.356;2023-01-20T11:56:41;27.60;;;20.40;;
10341;SDS011;5216;54.602;18.356;2023-01-20T11:59:16;30.80;;;21.17;;
10341;SDS011;5216;54.602;18.356;2023-01-20T12:07:17;27.43;;;19.23;;
10341;SDS011;5216;54.602;18.356;2023-01-20T12:09:48;27.13;;;19.37;;
10341;SDS011;5216;54.602;18.356;2023-01-20T12:12:19;26.00;;;17.93;;
10341;SDS011;5216;54.602;18.356;2023-01-20T12:14:50;27.20;;;20.17;;
10341;SDS011;5216;54.602;18.356;2023-01-20T12:22:26;22.60;;;16.43;;
10341;SDS011;5216;54.602;18.356;2023-01-20T12:25:02;21.30;;;17.00;;
10341;SDS011;5216;54.602;18.356;2023-01-20T12:27:46;21.03;;;16.17;;
10341;SDS011;5216;54.602;18.356;2023-01-20T12:30:35;20.90;;;16.03;;
10341;SDS011;5216;54.602;18.356;2023-01-20T12:32:59;20.77;;;16.17;;
10341;SDS011;5216;54.602;18.356;2023-01-20T12:35:26;20.93;;;16.30;;
10341;SDS011;5216;54.602;18.356;2023-01-20T12:37:55;22.47;;;16.83;;
10341;SDS011;5216;54.602;18.356;2023-01-20T12:53:51;22.47;;;17.37;;
10341;SDS011;5216;54.602;18.356;2023-01-20T12:59:00;20.67;;;15.47;;
10341;SDS011;5216;54.602;18.356;2023-01-20T13:04:22;21.73;;;16.37;;
10341;SDS011;5216;54.602;18.356;2023-01-20T13:09:35;21.63;;;16.17;;
10341;SDS011;5216;54.602;18.356;2023-01-20T13:14:44;21.07;;;15.17;;
10341;SDS011;5216;54.602;18.356;2023-01-20T13:19:39;21.63;;;15.80;;
10341;SDS011;5216;54.602;18.356;2023-01-20T13:22:27;19.60;;;15.63;;
10341;SDS011;5216;54.602;18.356;2023-01-20T13:24:54;21.07;;;16.33;;
10341;SDS011;5216;54.602;18.356;2023-01-20T13:27:25;22.67;;;16.27;;
10341;SDS011;5216;54.602;18.356;2023-01-20T13:29:53;24.90;;;17.97;;
10341;SDS011;5216;54.602;18.356;2023-01-20T13:32:34;20.80;;;16.47;;
10341;SDS011;5216;54.602;18.356;2023-01-20T13:35:35;22.23;;;15.37;;
10341;SDS011;5216;54.602;18.356;2023-01-20T13:37:56;19.50;;;15.93;;
10341;SDS011;5216;54.602;18.356;2023-01-20T13:43:03;20.07;;;16.50;;
10341;SDS011;5216;54.602;18.356;2023-01-20T13:45:30;20.70;;;16.33;;
10341;SDS011;5216;54.602;18.356;2023-01-20T13:48:01;23.43;;;18.00;;
10341;SDS011;5216;54.602;18.356;2023-01-20T13:50:29;24.53;;;18.60;;
10341;SDS011;5216;54.602;18.356;2023-01-20T13:55:28;26.23;;;20.17;;
10341;SDS011;5216;54.602;18.356;2023-01-20T13:57:55;63.53;;;48.43;;
10341;SDS011;5216;54.602;18.356;2023-01-20T14:00:22;24.13;;;19.77;;
10341;SDS011;5216;54.602;18.356;2023-01-20T14:02:48;21.63;;;17.80;;
10341;SDS011;5216;54.602;18.356;2023-01-20T14:07:47;22.17;;;17.27;;
10341;SDS011;5216;54.602;18.356;2023-01-20T14:10:14;23.50;;;18.03;;
10341;SDS011;5216;54.602;18.356;2023-01-20T14:12:41;24.20;;;18.73;;
10341;SDS011;5216;54.602;18.356;2023-01-20T14:15:21;24.63;;;18.17;;
10341;SDS011;5216;54.602;18.356;2023-01-20T14:17:54;25.37;;;18.13;;
10341;SDS011;5216;54.602;18.356;2023-01-20T14:20:21;23.57;;;18.53;;
10341;SDS011;5216;54.602;18.356;2023-01-20T14:22:49;20.90;;;16.70;;
10341;SDS011;5216;54.602;18.356;2023-01-20T14:25:20;22.97;;;17.53;;
10341;SDS011;5216;54.602;18.356;2023-01-20T14:27:47;23.40;;;18.93;;
10341;SDS011;5216;54.602;18.356;2023-01-20T14:30:15;25.23;;;18.27;;
10341;SDS011;5216;54.602;18.356;2023-01-20T14:32:44;18.27;;;13.53;;
10341;SDS011;5216;54.602;18.356;2023-01-20T14:35:15;17.13;;;13.13;;
10341;SDS011;5216;54.602;18.356;2023-01-20T14:37:42;18.13;;;13.97;;
10341;SDS011;5216;54.602;18.356;2023-01-20T14:40:25;18.37;;;13.43;;
10341;SDS011;5216;54.602;18.356;2023-01-20T14:42:59;16.00;;;13.07;;
10341;SDS011;5216;54.602;18.356;2023-01-20T14:45:30;25.30;;;15.93;;
10341;SDS011;5216;54.602;18.356;2023-01-20T14:47:57;21.07;;;16.27;;
10341;SDS011;5216;54.602;18.356;2023-01-20T14:50:25;19.83;;;15.43;;
10341;SDS011;5216;54.602;18.356;2023-01-20T14:52:52;20.90;;;15.87;;
10341;SDS011;5216;54.602;18.356;2023-01-20T14:55:25;38.70;;;31.30;;
10341;SDS011;5216;54.602;18.356;2023-01-20T14:57:51;33.37;;;25.47;;
10341;SDS011;5216;54.602;18.356;2023-01-20T15:05:34;28.10;;;22.37;;
10341;SDS011;5216;54.602;18.356;2023-01-20T15:10:40;21.67;;;16.40;;
10341;SDS011;5216;54.602;18.356;2023-01-20T15:13:23;20.43;;;15.57;;
10341;SDS011;5216;54.602;18.356;2023-01-20T15:15:50;20.17;;;15.20;;
10341;SDS011;5216;54.602;18.356;2023-01-20T15:18:18;21.13;;;16.33;;
10341;SDS011;5216;54.602;18.356;2023-01-20T15:20:46;22.73;;;17.03;;
10341;SDS011;5216;54.602;18.356;2023-01-20T15:23:15;21.40;;;16.70;;
10341;SDS011;5216;54.602;18.356;2023-01-20T15:25:42;24.33;;;17.60;;
10341;SDS011;5216;54.602;18.356;2023-01-20T15:28:22;21.57;;;15.90;;
10341;SDS011;5216;54.602;18.356;2023-01-20T15:30:51;21.70;;;16.07;;
10341;SDS011;5216;54.602;18.356;2023-01-20T15:33:18;21.10;;;15.93;;
10341;SDS011;5216;54.602;18.356;2023-01-20T15:35:53;22.67;;;17.43;;
10341;SDS011;5216;54.602;18.356;2023-01-20T15:38:21;25.77;;;17.93;;
10341;SDS011;5216;54.602;18.356;2023-01-20T15:40:47;22.77;;;16.93;;
10341;SDS011;5216;54.602;18.356;2023-01-20T15:43:17;26.30;;;18.33;;
10341;SDS011;5216;54.602;18.356;2023-01-20T15:45:44;23.57;;;17.47;;
10341;SDS011;5216;54.602;18.356;2023-01-20T15:48:17;26.00;;;17.30;;
10341;SDS011;5216;54.602;18.356;2023-01-20T15:50:44;23.80;;;18.43;;
10341;SDS011;5216;54.602;18.356;2023-01-20T15:53:11;24.97;;;18.87;;
10341;SDS011;5216;54.602;18.356;2023-01-20T15:55:47;22.93;;;18.30;;
10341;SDS011;5216;54.602;18.356;2023-01-20T15:58:22;22.50;;;18.90;;
10341;SDS011;5216;54.602;18.356;2023-01-20T16:00:49;24.70;;;18.27;;
10341;SDS011;5216;54.602;18.356;2023-01-20T16:03:16;24.37;;;18.20;;
10341;SDS011;5216;54.602;18.356;2023-01-20T16:05:42;22.13;;;16.47;;
10341;SDS011;5216;54.602;18.356;2023-01-20T16:08:13;31.47;;;21.47;;
10341;SDS011;5216;54.602;18.356;2023-01-20T16:10:42;26.87;;;20.03;;
10341;SDS011;5216;54.602;18.356;2023-01-20T16:13:18;26.57;;;19.63;;
10341;SDS011;5216;54.602;18.356;2023-01-20T16:15:55;22.80;;;18.47;;
10341;SDS011;5216;54.602;18.356;2023-01-20T16:18:22;26.33;;;19.43;;
10341;SDS011;5216;54.602;18.356;2023-01-20T16:20:48;23.73;;;18.03;;
10341;SDS011;5216;54.602;18.356;2023-01-20T16:23:15;21.63;;;17.10;;
10341;SDS011;5216;54.602;18.356;2023-01-20T16:25:42;24.60;;;18.07;;
10341;SDS011;5216;54.602;18.356;2023-01-20T16:28:16;24.33;;;17.67;;
10341;SDS011;5216;54.602;18.356;2023-01-20T16:30:45;21.60;;;17.33;;
10341;SDS011;5216;54.602;18.356;2023-01-20T16:35:53;23.83;;;16.83;;
10341;SDS011;5216;54.602;18.356;2023-01-20T16:38:35;22.30;;;17.17;;
10341;SDS011;5216;54.602;18.356;2023-01-20T16:41:15;25.20;;;18.93;;
10341;SDS011;5216;54.602;18.356;2023-01-20T16:43:42;27.00;;;18.90;;
10341;SDS011;5216;54.602;18.356;2023-01-20T16:46:12;24.30;;;19.03;;